createdAt,value
2023-04-29T00:00:22.273Z,1009.28
2023-04-29T00:01:22.295Z,1009.27
2023-04-29T00:02:22.289Z,1009.21
2023-04-29T00:03:22.489Z,1009.20
2023-04-29T00:04:22.410Z,1009.28
2023-04-29T00:05:22.426Z,1009.29
2023-04-29T00:06:22.304Z,1009.37
2023-04-29T00:07:22.236Z,1009.40
2023-04-29T00:08:22.173Z,1009.34
2023-04-29T00:09:22.161Z,1009.37
2023-04-29T00:10:22.163Z,1009.37
2023-04-29T00:11:22.145Z,1009.39
2023-04-29T00:12:22.166Z,1009.35
2023-04-29T00:13:22.143Z,1009.37
2023-04-29T00:14:22.097Z,1009.41
2023-04-29T00:15:22.099Z,1009.38
2023-04-29T00:16:22.103Z,1009.41
2023-04-29T00:17:22.123Z,1009.43
2023-04-29T00:18:22.115Z,1009.44
2023-04-29T00:19:22.069Z,1009.40
2023-04-29T00:20:22.039Z,1009.46
2023-04-29T00:21:22.027Z,1009.49
2023-04-29T00:22:22.018Z,1009.44
2023-04-29T00:23:23.082Z,1009.44
2023-04-29T00:24:21.987Z,1009.47
2023-04-29T00:25:21.983Z,1009.42
2023-04-29T00:26:21.991Z,1009.39
2023-04-29T00:27:21.961Z,1009.51
2023-04-29T00:28:21.991Z,1009.49
2023-04-29T00:29:21.948Z,1009.51
2023-04-29T00:30:21.953Z,1009.53
2023-04-29T00:31:22.018Z,1009.54
2023-04-29T00:32:21.964Z,1009.56
2023-04-29T00:33:21.888Z,1009.55
2023-04-29T00:34:21.896Z,1009.54
2023-04-29T00:35:21.888Z,1009.56
2023-04-29T00:36:21.880Z,1009.60
2023-04-29T00:37:21.863Z,1009.66
2023-04-29T00:38:21.829Z,1009.66
2023-04-29T00:39:21.841Z,1009.61
2023-04-29T00:40:21.819Z,1009.67
2023-04-29T00:41:21.846Z,1009.65
2023-04-29T00:42:21.819Z,1009.72
2023-04-29T00:43:21.790Z,1009.65
2023-04-29T00:44:21.763Z,1009.70
2023-04-29T00:45:21.781Z,1009.71
2023-04-29T00:46:21.796Z,1009.70
2023-04-29T00:47:21.774Z,1009.74
2023-04-29T00:48:21.737Z,1009.69
2023-04-29T00:49:21.725Z,1009.71
2023-04-29T00:50:21.714Z,1009.73
2023-04-29T00:51:21.716Z,1009.74
2023-04-29T00:52:21.712Z,1009.75
2023-04-29T00:53:21.675Z,1009.75
2023-04-29T00:54:23.169Z,1009.79
2023-04-29T00:55:21.653Z,1009.82
2023-04-29T00:56:21.634Z,1009.77
2023-04-29T00:57:21.626Z,1009.79
2023-04-29T00:58:21.636Z,1009.74
2023-04-29T00:59:21.604Z,1009.84
2023-04-29T01:00:21.588Z,1009.78
2023-04-29T01:01:21.619Z,1009.87
2023-04-29T01:02:21.632Z,1009.75
2023-04-29T01:03:21.671Z,1009.82
2023-04-29T01:04:21.597Z,1009.83
2023-04-29T01:05:21.564Z,1009.79
2023-04-29T01:06:21.546Z,1009.87
2023-04-29T01:07:21.540Z,1009.84
2023-04-29T01:08:21.517Z,1009.83
2023-04-29T01:09:21.488Z,1009.82
2023-04-29T01:10:22.481Z,1009.85
2023-04-29T01:11:21.492Z,1009.83
2023-04-29T01:12:21.477Z,1009.89
2023-04-29T01:13:21.450Z,1009.91
2023-04-29T01:14:21.452Z,1009.93
2023-04-29T01:15:21.429Z,1009.97
2023-04-29T01:16:21.483Z,1009.92
2023-04-29T01:17:21.454Z,1010.02
2023-04-29T01:18:21.418Z,1009.96
2023-04-29T01:19:21.420Z,1009.98
2023-04-29T01:20:21.367Z,1009.94
2023-04-29T01:21:21.396Z,1009.91
2023-04-29T01:22:21.342Z,1009.96
2023-04-29T01:23:21.341Z,1010.04
2023-04-29T01:24:21.324Z,1010.05
2023-04-29T01:25:21.374Z,1010.04
2023-04-29T01:26:21.320Z,1010.04
2023-04-29T01:27:21.308Z,1010.12
2023-04-29T01:28:21.305Z,1010.07
2023-04-29T01:29:21.275Z,1010.09
2023-04-29T01:30:22.127Z,1010.06
2023-04-29T01:31:21.296Z,1010.13
2023-04-29T01:32:21.256Z,1010.10
2023-04-29T01:33:21.253Z,1010.11
2023-04-29T01:34:21.225Z,1010.14
2023-04-29T01:35:21.247Z,1010.09
2023-04-29T01:36:21.198Z,1010.07
2023-04-29T01:37:21.171Z,1010.08
2023-04-29T01:38:21.179Z,1010.09
2023-04-29T01:39:21.161Z,1010.15
2023-04-29T01:40:21.176Z,1010.14
2023-04-29T01:41:21.190Z,1010.15
2023-04-29T01:42:21.162Z,1010.12
2023-04-29T01:43:21.149Z,1010.19
2023-04-29T01:44:21.122Z,1010.15
2023-04-29T01:45:21.097Z,1010.14
2023-04-29T01:46:21.105Z,1010.18
2023-04-29T01:47:21.087Z,1010.22
2023-04-29T01:48:21.073Z,1010.20
2023-04-29T01:49:21.073Z,1010.17
2023-04-29T01:50:21.063Z,1010.16
2023-04-29T01:51:21.023Z,1010.20
2023-04-29T01:52:21.031Z,1010.27
2023-04-29T01:53:21.023Z,1010.26
2023-04-29T01:54:21.043Z,1010.26
2023-04-29T01:55:20.994Z,1010.24
2023-04-29T01:56:21.233Z,1010.25
2023-04-29T01:57:20.970Z,1010.28
2023-04-29T01:58:20.958Z,1010.23
2023-04-29T01:59:20.948Z,1010.26
2023-04-29T02:00:20.952Z,1010.24
2023-04-29T02:01:21.910Z,1010.31
2023-04-29T02:02:21.080Z,1010.34
2023-04-29T02:03:20.973Z,1010.32
2023-04-29T02:04:20.971Z,1010.27
2023-04-29T02:05:20.878Z,1010.29
2023-04-29T02:06:20.889Z,1010.33
2023-04-29T02:07:20.850Z,1010.32
2023-04-29T02:08:20.878Z,1010.36
2023-04-29T02:09:20.850Z,1010.34
2023-04-29T02:10:20.859Z,1010.38
2023-04-29T02:11:21.451Z,1010.35
2023-04-29T02:12:20.814Z,1010.42
2023-04-29T02:13:20.797Z,1010.37
2023-04-29T02:14:20.787Z,1010.44
2023-04-29T03:46:51.014Z,1011.15
2023-04-29T03:47:44.608Z,1011.13
2023-04-29T03:48:44.374Z,1011.14
2023-04-29T03:49:44.269Z,1011.16
2023-04-29T03:50:44.281Z,1011.17
2023-04-29T03:51:44.325Z,1011.18
2023-04-29T03:52:44.289Z,1011.22
2023-04-29T03:53:44.231Z,1011.12
2023-04-29T03:54:44.260Z,1011.23
2023-04-29T03:55:44.215Z,1011.16
2023-04-29T03:56:44.264Z,1011.20
2023-04-29T03:57:44.207Z,1011.22
2023-04-29T03:58:44.220Z,1011.15
2023-04-29T03:59:44.170Z,1011.17
2023-04-29T04:00:44.164Z,1011.21
2023-04-29T04:01:45.207Z,1011.24
2023-04-29T04:02:44.406Z,1011.21
2023-04-29T04:03:44.224Z,1011.27
2023-04-29T04:04:44.425Z,1011.17
2023-04-29T04:05:44.120Z,1011.27
2023-04-29T04:06:44.128Z,1011.26
2023-04-29T04:07:44.215Z,1011.24
2023-04-29T04:08:44.069Z,1011.27
2023-04-29T04:09:44.252Z,1011.29
2023-04-29T04:10:45.498Z,1011.33
2023-04-29T04:11:44.999Z,1011.29
2023-04-29T04:12:44.454Z,1011.34
2023-04-29T04:13:44.010Z,1011.37
2023-04-29T04:14:44.005Z,1011.36
2023-04-29T04:15:43.988Z,1011.34
2023-04-29T04:16:44.092Z,1011.37
2023-04-29T04:17:43.982Z,1011.36
2023-04-29T04:18:43.974Z,1011.47
2023-04-29T04:19:43.931Z,1011.40
2023-04-29T04:20:43.961Z,1011.51
2023-04-29T04:21:43.924Z,1011.49
2023-04-29T04:22:44.797Z,1011.49
2023-04-29T04:23:43.905Z,1011.45
2023-04-29T04:24:43.883Z,1011.48
2023-04-29T04:25:43.892Z,1011.43
2023-04-29T04:26:43.881Z,1011.50
2023-04-29T04:27:43.884Z,1011.49
2023-04-29T04:28:43.876Z,1011.46
2023-04-29T04:29:44.213Z,1011.49
2023-04-29T04:30:43.833Z,1011.49
2023-04-29T04:31:46.264Z,1011.53
2023-04-29T04:32:43.901Z,1011.55
2023-04-29T04:33:43.800Z,1011.50
2023-04-29T04:34:43.795Z,1011.53
2023-04-29T04:35:44.149Z,1011.56
2023-04-29T04:36:43.773Z,1011.57
2023-04-29T04:37:43.844Z,1011.61
2023-04-29T04:38:43.826Z,1011.67
2023-04-29T04:39:44.205Z,1011.63
2023-04-29T04:40:44.174Z,1011.60
2023-04-29T04:41:44.137Z,1011.64
2023-04-29T04:42:43.709Z,1011.66
2023-04-29T04:43:44.642Z,1011.68
2023-04-29T04:44:43.708Z,1011.70
2023-04-29T04:45:43.697Z,1011.66
2023-04-29T04:46:45.136Z,1011.75
2023-04-29T04:47:43.708Z,1011.71
2023-04-29T04:48:45.167Z,1011.74
2023-04-29T04:49:44.466Z,1011.71
2023-04-29T04:50:43.629Z,1011.73
2023-04-29T04:51:43.700Z,1011.75
2023-04-29T04:52:43.593Z,1011.74
2023-04-29T04:53:44.574Z,1011.80
2023-04-29T04:54:43.564Z,1011.82
2023-04-29T04:55:43.986Z,1011.80
2023-04-29T04:56:44.388Z,1011.82
2023-04-29T04:57:45.006Z,1011.85
2023-04-29T04:58:43.589Z,1011.90
2023-04-29T04:59:44.976Z,1011.80
2023-04-29T05:00:43.659Z,1011.88
2023-04-29T05:01:43.527Z,1011.88
2023-04-29T05:02:43.753Z,1011.95
2023-04-29T05:03:43.691Z,1011.91
2023-04-29T05:04:43.482Z,1011.85
2023-04-29T05:05:43.589Z,1011.84
2023-04-29T05:06:43.441Z,1011.91
2023-04-29T05:07:43.476Z,1011.88
2023-04-29T05:08:43.581Z,1011.90
2023-04-29T05:09:43.437Z,1011.87
2023-04-29T05:10:44.610Z,1011.94
2023-04-29T05:11:45.329Z,1011.92
2023-04-29T05:12:43.444Z,1011.97
2023-04-29T05:13:45.362Z,1011.95
2023-04-29T05:14:43.386Z,1011.96
2023-04-29T05:15:43.353Z,1011.95
2023-04-29T05:16:43.566Z,1011.99
2023-04-29T05:17:43.763Z,1012.00
2023-04-29T05:18:43.364Z,1012.02
2023-04-29T05:19:43.414Z,1012.05
2023-04-29T05:20:44.251Z,1012.07
2023-04-29T05:21:43.270Z,1012.08
2023-04-29T05:22:43.567Z,1012.09
2023-04-29T05:23:44.704Z,1012.11
2023-04-29T05:24:43.443Z,1012.07
2023-04-29T05:25:44.693Z,1012.09
2023-04-29T05:26:43.269Z,1012.09
2023-04-29T05:27:44.665Z,1012.10
2023-04-29T05:28:44.668Z,1012.13
2023-04-29T05:29:44.707Z,1012.12
2023-04-29T05:30:43.998Z,1012.14
2023-04-29T05:31:43.154Z,1012.17
2023-04-29T05:32:43.195Z,1012.17
2023-04-29T05:33:43.178Z,1012.16
2023-04-29T05:34:43.985Z,1012.27
2023-04-29T05:35:43.115Z,1012.25
2023-04-29T05:36:43.211Z,1012.20
2023-04-29T05:37:44.049Z,1012.20
2023-04-29T05:38:43.128Z,1012.28
2023-04-29T05:39:43.916Z,1012.23
2023-04-29T05:40:44.026Z,1012.31
2023-04-29T05:41:44.515Z,1012.27
2023-04-29T05:42:43.085Z,1012.28
2023-04-29T05:43:43.038Z,1012.33
2023-04-29T05:44:43.035Z,1012.31
2023-04-29T05:45:44.469Z,1012.39
2023-04-29T05:46:43.089Z,1012.35
2023-04-29T05:47:43.227Z,1012.35
2023-04-29T05:48:43.825Z,1012.36
2023-04-29T05:49:42.973Z,1012.40
2023-04-29T05:50:43.230Z,1012.39
2023-04-29T05:51:43.098Z,1012.41
2023-04-29T05:52:43.273Z,1012.40
2023-04-29T05:53:42.942Z,1012.39
2023-04-29T05:54:42.980Z,1012.38
2023-04-29T05:55:44.362Z,1012.44
2023-04-29T05:56:42.889Z,1012.51
2023-04-29T05:57:43.660Z,1012.48
2023-04-29T05:58:44.333Z,1012.48
2023-04-29T05:59:42.869Z,1012.44
2023-04-29T06:00:42.844Z,1012.49
2023-04-29T06:01:43.675Z,1012.54
2023-04-29T06:02:54.673Z,1012.56
2023-04-29T06:03:44.373Z,1012.50
2023-04-29T06:04:44.031Z,1012.55
2023-04-29T06:05:43.381Z,1012.54
2023-04-29T06:06:43.749Z,1012.57
2023-04-29T06:07:42.752Z,1012.62
2023-04-29T06:08:44.230Z,1012.62
2023-04-29T06:09:42.812Z,1012.66
2023-04-29T06:10:44.245Z,1012.61
2023-04-29T06:11:43.062Z,1012.70
2023-04-29T06:12:42.830Z,1012.72
2023-04-29T06:13:42.892Z,1012.66
2023-04-29T06:14:42.671Z,1012.72
2023-04-29T06:15:43.182Z,1012.74
2023-04-29T06:16:42.705Z,1012.77
2023-04-29T06:17:43.703Z,1012.72
2023-04-29T06:18:44.129Z,1012.76
2023-04-29T06:19:44.083Z,1012.77
2023-04-29T06:20:43.581Z,1012.75
2023-04-29T06:21:42.632Z,1012.83
2023-04-29T06:22:42.691Z,1012.83
2023-04-29T06:23:43.072Z,1012.84
2023-04-29T06:24:42.651Z,1012.92
2023-04-29T06:25:42.556Z,1012.88
2023-04-29T06:26:42.573Z,1012.88
2023-04-29T06:27:42.537Z,1012.96
2023-04-29T06:28:42.620Z,1012.97
2023-04-29T06:29:42.574Z,1012.99
2023-04-29T06:30:42.528Z,1012.98
2023-04-29T06:31:42.632Z,1012.98
2023-04-29T06:32:42.615Z,1012.98
2023-04-29T06:33:42.650Z,1012.98
2023-04-29T06:34:42.717Z,1013.04
2023-04-29T06:35:43.407Z,1012.98
2023-04-29T06:36:42.693Z,1012.97
2023-04-29T06:37:42.733Z,1012.98
2023-04-29T06:38:43.282Z,1013.05
2023-04-29T06:39:42.421Z,1013.01
2023-04-29T06:40:43.196Z,1013.03
2023-04-29T06:41:42.382Z,1013.07
2023-04-29T06:42:42.429Z,1013.06
2023-04-29T06:43:42.376Z,1013.03
2023-04-29T06:44:42.346Z,1013.07
2023-04-29T06:45:42.341Z,1013.08
2023-04-29T06:46:42.392Z,1013.07
2023-04-29T06:47:42.359Z,1013.15
2023-04-29T06:48:42.363Z,1013.06
2023-04-29T06:49:42.346Z,1013.16
2023-04-29T06:50:42.303Z,1013.10
2023-04-29T06:51:42.271Z,1013.14
2023-04-29T06:52:42.341Z,1013.12
2023-04-29T06:53:42.238Z,1013.13
2023-04-29T06:54:42.267Z,1013.09
2023-04-29T06:55:43.178Z,1013.10
2023-04-29T06:56:42.218Z,1013.17
2023-04-29T06:57:42.237Z,1013.17
2023-04-29T06:58:43.670Z,1013.21
2023-04-29T06:59:42.196Z,1013.22
2023-04-29T07:00:42.180Z,1013.21
2023-04-29T07:01:44.585Z,1013.28
2023-04-29T07:02:42.249Z,1013.28
2023-04-29T07:03:42.292Z,1013.31
2023-04-29T07:04:42.196Z,1013.30
2023-04-29T07:05:42.129Z,1013.30
2023-04-29T07:06:42.096Z,1013.34
2023-04-29T07:07:42.263Z,1013.35
2023-04-29T07:08:42.081Z,1013.40
2023-04-29T07:09:43.026Z,1013.43
2023-04-29T07:10:42.069Z,1013.42
2023-04-29T07:11:42.345Z,1013.44
2023-04-29T07:12:42.866Z,1013.45
2023-04-29T07:13:42.055Z,1013.49
2023-04-29T07:14:42.033Z,1013.50
2023-04-29T07:15:42.013Z,1013.49
2023-04-29T07:16:42.131Z,1013.51
2023-04-29T07:17:42.154Z,1013.55
2023-04-29T07:18:41.978Z,1013.56
2023-04-29T07:19:42.089Z,1013.57
2023-04-29T07:20:41.935Z,1013.51
2023-04-29T07:21:42.023Z,1013.54
2023-04-29T07:22:41.950Z,1013.54
2023-04-29T07:23:42.894Z,1013.55
2023-04-29T07:24:42.032Z,1013.64
2023-04-29T07:25:41.960Z,1013.62
2023-04-29T07:26:41.892Z,1013.59
2023-04-29T07:27:42.034Z,1013.65
2023-04-29T07:28:42.000Z,1013.67
2023-04-29T07:29:41.877Z,1013.69
2023-04-29T07:30:41.880Z,1013.69
2023-04-29T07:31:41.857Z,1013.72
2023-04-29T07:32:41.870Z,1013.70
2023-04-29T07:33:43.310Z,1013.71
2023-04-29T07:34:41.883Z,1013.76
2023-04-29T07:35:42.629Z,1013.74
2023-04-29T07:36:41.765Z,1013.76
2023-04-29T07:37:43.904Z,1013.78
2023-04-29T07:38:41.838Z,1013.81
2023-04-29T07:39:43.244Z,1013.83
2023-04-29T07:40:43.189Z,1013.88
2023-04-29T07:41:42.671Z,1013.85
2023-04-29T07:42:41.714Z,1013.83
2023-04-29T07:43:42.560Z,1013.87
2023-04-29T07:44:41.677Z,1013.92
2023-04-29T07:45:41.692Z,1013.93
2023-04-29T07:46:42.098Z,1013.93
2023-04-29T07:47:41.683Z,1013.89
2023-04-29T07:48:41.648Z,1013.90
2023-04-29T07:49:41.697Z,1013.87
2023-04-29T07:50:41.613Z,1013.90
2023-04-29T07:51:41.610Z,1013.88
2023-04-29T07:52:41.614Z,1013.90
2023-04-29T07:53:41.644Z,1013.91
2023-04-29T07:54:41.569Z,1013.98
2023-04-29T07:55:41.589Z,1013.90
2023-04-29T07:56:41.558Z,1014.02
2023-04-29T07:57:41.541Z,1013.98
2023-04-29T07:58:41.624Z,1013.99
2023-04-29T07:59:41.516Z,1014.02
2023-04-29T08:00:41.763Z,1014.01
2023-04-29T08:01:41.503Z,1014.02
2023-04-29T08:02:41.583Z,1014.05
2023-04-29T08:03:42.279Z,1014.10
2023-04-29T08:04:41.824Z,1014.10
2023-04-29T08:05:41.497Z,1014.08
2023-04-29T08:06:41.438Z,1014.11
2023-04-29T08:07:41.440Z,1014.14
2023-04-29T08:08:42.405Z,1014.16
2023-04-29T08:09:41.425Z,1014.15
2023-04-29T08:10:41.406Z,1014.19
2023-04-29T08:11:41.419Z,1014.19
2023-04-29T08:12:41.399Z,1014.16
2023-04-29T08:13:41.375Z,1014.20
2023-04-29T08:14:41.336Z,1014.16
2023-04-29T08:15:41.325Z,1014.17
2023-04-29T08:16:41.378Z,1014.22
2023-04-29T08:17:41.323Z,1014.14
2023-04-29T08:18:41.339Z,1014.16
2023-04-29T08:19:41.328Z,1014.26
2023-04-29T08:20:41.419Z,1014.23
2023-04-29T08:21:41.275Z,1014.24
2023-04-29T08:22:41.279Z,1014.18
2023-04-29T08:23:41.238Z,1014.28
2023-04-29T08:24:41.246Z,1014.25
2023-04-29T08:25:41.270Z,1014.29
2023-04-29T08:26:41.207Z,1014.24
2023-04-29T08:27:41.206Z,1014.29
2023-04-29T08:28:41.268Z,1014.32
2023-04-29T08:29:41.228Z,1014.33
2023-04-29T08:30:41.518Z,1014.31
2023-04-29T08:31:41.247Z,1014.32
2023-04-29T08:32:41.246Z,1014.40
2023-04-29T08:33:41.174Z,1014.38
2023-04-29T08:34:41.129Z,1014.34
2023-04-29T08:35:41.112Z,1014.39
2023-04-29T08:36:41.139Z,1014.38
2023-04-29T08:37:41.102Z,1014.38
2023-04-29T08:38:41.075Z,1014.44
2023-04-29T08:39:41.066Z,1014.40
2023-04-29T08:40:41.070Z,1014.42
2023-04-29T08:41:41.053Z,1014.44
2023-04-29T08:42:41.064Z,1014.43
2023-04-29T08:43:41.106Z,1014.41
2023-04-29T08:44:41.268Z,1014.48
2023-04-29T08:45:41.029Z,1014.47
2023-04-29T08:46:40.984Z,1014.46
2023-04-29T08:47:41.056Z,1014.47
2023-04-29T08:48:44.184Z,1014.51
2023-04-29T08:49:40.985Z,1014.53
2023-04-29T08:50:40.947Z,1014.53
2023-04-29T08:51:40.941Z,1014.49
2023-04-29T08:52:40.971Z,1014.58
2023-04-29T08:53:40.935Z,1014.60
2023-04-29T08:54:40.926Z,1014.55
2023-04-29T08:55:40.917Z,1014.56
2023-04-29T08:56:42.334Z,1014.58
2023-04-29T08:57:40.910Z,1014.56
2023-04-29T08:58:41.467Z,1014.63
2023-04-29T08:59:42.812Z,1014.65
2023-04-29T09:00:41.834Z,1014.63
2023-04-29T09:01:42.307Z,1014.67
2023-04-29T09:02:40.902Z,1014.68
2023-04-29T09:03:41.107Z,1014.67
2023-04-29T09:04:41.267Z,1014.68
2023-04-29T09:05:40.818Z,1014.74
2023-04-29T09:06:40.936Z,1014.71
2023-04-29T09:07:40.778Z,1014.70
2023-04-29T09:08:42.234Z,1014.68
2023-04-29T09:09:40.774Z,1014.71
2023-04-29T09:10:42.274Z,1014.74
2023-04-29T09:11:40.765Z,1014.72
2023-04-29T09:12:40.711Z,1014.74
2023-04-29T09:13:40.740Z,1014.76
2023-04-29T09:14:40.744Z,1014.80
2023-04-29T09:15:41.349Z,1014.75
2023-04-29T09:16:40.807Z,1014.76
2023-04-29T09:17:40.706Z,1014.74
2023-04-29T09:18:40.657Z,1014.79
2023-04-29T09:19:40.631Z,1014.83
2023-04-29T09:20:40.675Z,1014.81
2023-04-29T09:21:40.612Z,1014.79
2023-04-29T09:22:40.592Z,1014.83
2023-04-29T09:23:40.572Z,1014.83
2023-04-29T09:24:40.592Z,1014.82
2023-04-29T09:25:40.555Z,1014.84
2023-04-29T09:26:40.713Z,1014.84
2023-04-29T09:27:40.553Z,1014.91
2023-04-29T09:28:40.553Z,1014.93
2023-04-29T09:29:40.523Z,1014.97
2023-04-29T09:30:40.509Z,1014.92
2023-04-29T09:31:41.458Z,1014.97
2023-04-29T09:32:40.552Z,1014.94
2023-04-29T09:33:40.573Z,1014.95
2023-04-29T09:34:40.689Z,1015.01
2023-04-29T09:35:40.469Z,1014.97
2023-04-29T09:36:40.429Z,1014.93
2023-04-29T09:37:40.430Z,1014.93
2023-04-29T09:38:42.248Z,1014.94
2023-04-29T09:39:40.395Z,1015.00
2023-04-29T09:40:54.241Z,1014.98
2023-04-29T09:41:41.402Z,1014.99
2023-04-29T09:42:40.369Z,1014.99
2023-04-29T09:43:40.381Z,1014.97
2023-04-29T09:44:40.358Z,1014.97
2023-04-29T09:45:40.353Z,1014.98
2023-04-29T09:46:40.601Z,1015.02
2023-04-29T09:47:41.324Z,1015.00
2023-04-29T09:48:40.337Z,1015.03
2023-04-29T09:49:40.284Z,1015.02
2023-04-29T09:50:41.279Z,1015.04
2023-04-29T09:51:40.326Z,1015.04
2023-04-29T09:52:40.262Z,1015.08
2023-04-29T09:53:40.270Z,1015.12
2023-04-29T09:54:40.415Z,1015.07
2023-04-29T09:55:40.239Z,1015.12
2023-04-29T09:56:40.214Z,1015.13
2023-04-29T09:57:42.091Z,1015.09
2023-04-29T09:58:40.195Z,1015.11
2023-04-29T09:59:40.184Z,1015.12
2023-04-29T10:00:40.197Z,1015.08
2023-04-29T10:01:40.287Z,1015.10
2023-04-29T10:02:40.187Z,1015.11
2023-04-29T10:03:40.307Z,1015.17
2023-04-29T10:04:40.390Z,1015.12
2023-04-29T10:05:40.132Z,1015.18
2023-04-29T10:06:40.095Z,1015.17
2023-04-29T10:07:40.089Z,1015.14
2023-04-29T10:08:40.082Z,1015.16
2023-04-29T10:09:41.058Z,1015.14
2023-04-29T10:10:40.108Z,1015.18
2023-04-29T10:11:40.059Z,1015.21
2023-04-29T10:12:40.054Z,1015.25
2023-04-29T10:13:40.026Z,1015.22
2023-04-29T10:14:40.016Z,1015.25
2023-04-29T10:15:40.088Z,1015.23
2023-04-29T10:16:40.000Z,1015.24
2023-04-29T10:17:39.983Z,1015.22
2023-04-29T10:18:40.006Z,1015.28
2023-04-29T10:19:39.966Z,1015.22
2023-04-29T10:20:39.948Z,1015.27
2023-04-29T10:21:39.951Z,1015.23
2023-04-29T10:22:39.928Z,1015.26
2023-04-29T10:23:40.921Z,1015.25
2023-04-29T10:24:39.898Z,1015.29
2023-04-29T10:25:39.898Z,1015.28
2023-04-29T10:26:39.915Z,1015.28
2023-04-29T10:27:40.864Z,1015.29
2023-04-29T10:28:40.745Z,1015.28
2023-04-29T10:29:39.842Z,1015.35
2023-04-29T10:30:39.857Z,1015.36
2023-04-29T10:31:39.898Z,1015.31
2023-04-29T10:32:50.511Z,1015.32
2023-04-29T10:33:40.883Z,1015.33
2023-04-29T10:34:40.748Z,1015.31
2023-04-29T10:35:39.786Z,1015.26
2023-04-29T10:36:39.794Z,1015.30
2023-04-29T10:37:39.763Z,1015.32
2023-04-29T10:38:39.749Z,1015.29
2023-04-29T10:39:39.758Z,1015.25
2023-04-29T10:40:39.725Z,1015.32
2023-04-29T10:41:39.706Z,1015.30
2023-04-29T10:42:39.731Z,1015.29
2023-04-29T10:43:39.692Z,1015.37
2023-04-29T10:44:39.678Z,1015.34
2023-04-29T10:45:39.669Z,1015.42
2023-04-29T10:46:39.717Z,1015.36
2023-04-29T10:47:39.716Z,1015.37
2023-04-29T10:48:39.641Z,1015.36
2023-04-29T10:49:39.620Z,1015.39
2023-04-29T10:50:39.620Z,1015.45
2023-04-29T10:51:39.634Z,1015.43
2023-04-29T10:52:39.595Z,1015.37
2023-04-29T10:53:39.714Z,1015.39
2023-04-29T10:54:39.583Z,1015.37
2023-04-29T10:55:39.616Z,1015.36
2023-04-29T10:56:39.577Z,1015.37
2023-04-29T10:57:39.561Z,1015.40
2023-04-29T10:58:39.963Z,1015.41
2023-04-29T10:59:39.536Z,1015.43
2023-04-29T11:00:39.558Z,1015.40
2023-04-29T11:01:39.511Z,1015.39
2023-04-29T11:02:39.999Z,1015.38
2023-04-29T11:03:39.610Z,1015.44
2023-04-29T11:04:39.482Z,1015.38
2023-04-29T11:05:39.455Z,1015.38
2023-04-29T11:06:39.435Z,1015.41
2023-04-29T11:07:39.558Z,1015.39
2023-04-29T11:08:39.437Z,1015.40
2023-04-29T11:09:39.432Z,1015.42
2023-04-29T11:10:39.397Z,1015.40
2023-04-29T11:11:39.395Z,1015.40
2023-04-29T11:12:39.408Z,1015.43
2023-04-29T11:13:39.396Z,1015.35
2023-04-29T11:14:39.370Z,1015.40
2023-04-29T11:15:39.338Z,1015.39
2023-04-29T11:16:39.364Z,1015.44
2023-04-29T11:17:39.386Z,1015.38
2023-04-29T11:18:39.298Z,1015.42
2023-04-29T11:19:40.797Z,1015.38
2023-04-29T11:20:39.306Z,1015.42
2023-04-29T11:21:39.294Z,1015.40
2023-04-29T11:22:39.289Z,1015.39
2023-04-29T11:23:39.243Z,1015.40
2023-04-29T11:24:39.238Z,1015.37
2023-04-29T11:25:40.209Z,1015.37
2023-04-29T11:26:39.256Z,1015.43
2023-04-29T11:27:39.435Z,1015.37
2023-04-29T11:28:39.222Z,1015.38
2023-04-29T11:29:39.836Z,1015.38
2023-04-29T11:30:39.169Z,1015.43
2023-04-29T11:31:39.326Z,1015.47
2023-04-29T11:32:39.265Z,1015.42
2023-04-29T11:33:40.091Z,1015.41
2023-04-29T11:34:39.138Z,1015.41
2023-04-29T11:35:39.130Z,1015.40
2023-04-29T11:36:39.115Z,1015.38
2023-04-29T11:37:39.198Z,1015.38
2023-04-29T11:38:39.098Z,1015.43
2023-04-29T11:39:39.075Z,1015.46
2023-04-29T11:40:39.076Z,1015.40
2023-04-29T11:41:39.071Z,1015.42
2023-04-29T11:42:39.050Z,1015.39
2023-04-29T11:43:39.069Z,1015.36
2023-04-29T11:44:39.032Z,1015.40
2023-04-29T11:45:39.090Z,1015.37
2023-04-29T11:46:39.229Z,1015.35
2023-04-29T11:47:39.001Z,1015.37
2023-04-29T11:48:38.965Z,1015.43
2023-04-29T11:49:38.978Z,1015.39
2023-04-29T11:50:40.511Z,1015.38
2023-04-29T11:51:38.954Z,1015.39
2023-04-29T11:52:38.960Z,1015.43
2023-04-29T11:53:38.944Z,1015.42
2023-04-29T11:54:38.918Z,1015.42
2023-04-29T11:55:39.132Z,1015.49
2023-04-29T11:56:38.903Z,1015.38
2023-04-29T11:57:40.328Z,1015.43
2023-04-29T11:58:38.910Z,1015.47
2023-04-29T11:59:39.106Z,1015.47
2023-04-29T12:00:39.853Z,1015.46
2023-04-29T12:01:38.819Z,1015.43
2023-04-29T12:02:40.505Z,1015.45
2023-04-29T12:03:39.232Z,1015.47
2023-04-29T12:04:39.051Z,1015.48
2023-04-29T12:05:38.819Z,1015.45
2023-04-29T12:06:40.299Z,1015.47
2023-04-29T12:07:38.762Z,1015.47
2023-04-29T12:08:38.841Z,1015.43
2023-04-29T12:09:38.807Z,1015.45
2023-04-29T12:10:38.758Z,1015.47
2023-04-29T12:11:38.827Z,1015.47
2023-04-29T12:12:39.099Z,1015.44
2023-04-29T12:13:39.669Z,1015.43
2023-04-29T12:14:38.699Z,1015.41
2023-04-29T12:15:40.429Z,1015.41
2023-04-29T12:16:38.847Z,1015.39
2023-04-29T12:17:38.691Z,1015.37
2023-04-29T12:18:38.658Z,1015.36
2023-04-29T12:19:38.875Z,1015.35
2023-04-29T12:20:38.630Z,1015.34
2023-04-29T12:21:38.906Z,1015.36
2023-04-29T12:22:38.902Z,1015.34
2023-04-29T12:23:38.732Z,1015.39
2023-04-29T12:24:38.797Z,1015.35
2023-04-29T12:25:38.568Z,1015.32
2023-04-29T12:26:40.065Z,1015.34
2023-04-29T12:27:38.561Z,1015.32
2023-04-29T12:28:38.585Z,1015.30
2023-04-29T12:29:38.575Z,1015.30
2023-04-29T12:30:38.624Z,1015.28
2023-04-29T12:31:38.526Z,1015.34
2023-04-29T12:32:38.730Z,1015.30
2023-04-29T12:33:39.929Z,1015.40
2023-04-29T12:34:38.459Z,1015.44
2023-04-29T12:35:38.452Z,1015.36
2023-04-29T12:36:38.483Z,1015.37
2023-04-29T12:37:38.448Z,1015.39
2023-04-29T12:38:38.467Z,1015.43
2023-04-29T12:39:38.421Z,1015.39
2023-04-29T12:40:39.858Z,1015.40
2023-04-29T12:41:38.663Z,1015.44
2023-04-29T12:42:38.555Z,1015.49
2023-04-29T12:43:38.570Z,1015.51
2023-04-29T12:44:39.191Z,1015.49
2023-04-29T12:45:38.335Z,1015.49
2023-04-29T12:46:38.388Z,1015.49
2023-04-29T12:47:38.531Z,1015.49
2023-04-29T12:48:38.378Z,1015.46
2023-04-29T12:49:38.528Z,1015.45
2023-04-29T12:50:38.289Z,1015.44
2023-04-29T12:51:38.319Z,1015.41
2023-04-29T12:52:39.834Z,1015.49
2023-04-29T12:53:38.282Z,1015.42
2023-04-29T12:54:40.222Z,1015.44
2023-04-29T12:55:38.222Z,1015.44
2023-04-29T12:56:38.225Z,1015.39
2023-04-29T12:57:38.212Z,1015.51
2023-04-29T12:58:38.221Z,1015.50
2023-04-29T12:59:38.487Z,1015.50
2023-04-29T13:00:38.272Z,1015.52
2023-04-29T13:01:38.864Z,1015.49
2023-04-29T13:02:39.021Z,1015.47
2023-04-29T13:03:38.657Z,1015.50
2023-04-29T13:04:40.121Z,1015.49
2023-04-29T13:05:38.113Z,1015.53
2023-04-29T13:06:38.265Z,1015.54
2023-04-29T13:07:38.116Z,1015.52
2023-04-29T13:08:38.107Z,1015.55
2023-04-29T13:09:39.562Z,1015.54
2023-04-29T13:10:39.538Z,1015.53
2023-04-29T13:11:38.192Z,1015.55
2023-04-29T13:12:38.271Z,1015.65
2023-04-29T13:13:38.991Z,1015.59
2023-04-29T13:14:39.482Z,1015.58
2023-04-29T13:15:38.976Z,1015.61
2023-04-29T13:16:38.370Z,1015.60
2023-04-29T13:17:39.479Z,1015.62
2023-04-29T13:18:39.134Z,1015.64
2023-04-29T13:19:49.641Z,1015.64
2023-04-29T13:20:42.006Z,1015.63
2023-04-29T13:21:39.442Z,1015.65
2023-04-29T13:22:37.949Z,1015.59
2023-04-29T13:23:39.375Z,1015.66
2023-04-29T13:24:38.721Z,1015.58
2023-04-29T13:25:39.375Z,1015.62
2023-04-29T13:26:39.365Z,1015.61
2023-04-29T13:27:39.366Z,1015.61
2023-04-29T13:28:38.701Z,1015.64
2023-04-29T13:29:38.819Z,1015.65
2023-04-29T13:30:39.314Z,1015.66
2023-04-29T13:31:38.665Z,1015.63
2023-04-29T13:32:45.916Z,1015.70
2023-04-29T13:33:40.233Z,1015.68
2023-04-29T13:34:37.804Z,1015.66
2023-04-29T13:35:39.258Z,1015.72
2023-04-29T13:36:37.799Z,1015.65